Time;durP1;ratioP1;P1;durP2;ratioP2;P2;SDS_P1;SDS_P2;PMS_P1;PMS_P2;Temp;Humidity;BMP_temperature;BMP_pressure;BME280_temperature;BME280_humidity;BME280_pressure;Samples;Min_cycle;Max_cycle;Signal;HPM_P1;HPM_P2
2023/12/28 00:01:34;;;;;;;3.40;2.15;;;10.40;99.90;;;;;;5017308;28;20017;-86
2023/12/28 00:04:00;;;;;;;3.55;1.73;;;10.40;99.90;;;;;;5044299;28;20065;-84
2023/12/28 00:06:26;;;;;;;2.58;1.80;;;10.40;99.90;;;;;;5050724;28;20033;-84
2023/12/28 00:08:51;;;;;;;2.95;2.08;;;10.30;99.90;;;;;;5015985;28;20076;-84
2023/12/28 00:11:17;;;;;;;4.25;2.05;;;10.40;99.90;;;;;;5039085;28;20070;-84
2023/12/28 00:13:43;;;;;;;3.03;2.17;;;10.40;99.90;;;;;;5031964;28;20049;-84
2023/12/28 00:16:08;;;;;;;3.38;2.10;;;10.40;99.90;;;;;;5010458;28;20038;-85
2023/12/28 00:18:34;;;;;;;5.68;1.85;;;10.30;99.90;;;;;;4979828;28;20034;-85
2023/12/28 00:21:00;;;;;;;2.55;1.60;;;10.30;99.90;;;;;;5025429;28;20041;-84
2023/12/28 00:23:25;;;;;;;2.08;1.88;;;10.30;99.90;;;;;;5017825;28;20021;-85
2023/12/28 00:25:51;;;;;;;3.50;2.00;;;10.30;99.90;;;;;;5032433;28;20018;-85
2023/12/28 00:28:17;;;;;;;4.68;2.10;;;10.30;99.90;;;;;;5047856;28;20030;-84
2023/12/28 00:30:43;;;;;;;4.25;2.40;;;10.40;99.90;;;;;;5006496;28;20040;-84
2023/12/28 00:33:08;;;;;;;2.97;2.03;;;10.40;99.90;;;;;;5012449;28;20053;-84
2023/12/28 00:35:37;;;;;;;3.33;2.03;;;10.40;99.90;;;;;;5032033;28;20041;-84
2023/12/28 00:38:03;;;;;;;2.55;2.22;;;10.40;99.90;;;;;;5020105;28;20026;-85
2023/12/28 00:40:29;;;;;;;2.20;1.95;;;10.40;99.90;;;;;;5019775;28;20028;-84
2023/12/28 00:42:55;;;;;;;3.42;2.03;;;10.40;99.90;;;;;;5009066;28;20032;-85
2023/12/28 00:45:21;;;;;;;2.97;2.30;;;10.50;99.90;;;;;;5034763;28;20448;-85
2023/12/28 00:47:47;;;;;;;2.65;1.88;;;10.50;99.90;;;;;;5019580;28;20091;-85
2023/12/28 00:50:14;;;;;;;3.13;2.10;;;10.50;99.90;;;;;;5036381;28;20108;-85
2023/12/28 00:52:40;;;;;;;3.28;2.00;;;10.40;99.90;;;;;;5019383;28;20037;-84
2023/12/28 00:55:07;;;;;;;3.60;2.10;;;10.40;99.90;;;;;;5036275;28;20033;-84
2023/12/28 00:57:33;;;;;;;3.08;2.00;;;10.50;99.90;;;;;;5035170;28;20121;-85
2023/12/28 00:59:59;;;;;;;3.50;1.90;;;10.50;99.90;;;;;;5018875;28;20116;-84
2023/12/28 01:02:24;;;;;;;4.28;2.08;;;10.50;99.90;;;;;;5036960;28;20087;-84
2023/12/28 01:04:50;;;;;;;3.95;1.90;;;10.50;99.90;;;;;;5019194;28;20021;-84
2023/12/28 01:07:15;;;;;;;2.97;1.95;;;10.50;99.90;;;;;;5035952;28;20108;-84
2023/12/28 01:09:41;;;;;;;4.40;2.13;;;10.50;99.90;;;;;;5035437;28;20152;-84
2023/12/28 01:12:07;;;;;;;3.40;1.90;;;10.60;99.90;;;;;;5035358;28;20488;-84
2023/12/28 01:14:33;;;;;;;2.53;2.17;;;10.60;99.90;;;;;;5049800;28;20053;-85
2023/12/28 01:16:59;;;;;;;3.17;1.80;;;10.60;99.90;;;;;;5020205;28;20029;-85
2023/12/28 01:19:24;;;;;;;3.72;2.13;;;10.50;99.90;;;;;;5037427;28;20052;-84
2023/12/28 01:21:50;;;;;;;3.35;2.10;;;10.50;99.90;;;;;;5060219;28;20013;-83
2023/12/28 01:24:16;;;;;;;2.83;1.95;;;10.60;99.90;;;;;;5060391;28;20085;-84
2023/12/28 01:26:42;;;;;;;3.85;1.98;;;10.60;99.90;;;;;;5060001;28;20032;-84
2023/12/28 01:29:08;;;;;;;3.35;2.05;;;10.60;99.90;;;;;;5072514;28;20037;-85
2023/12/28 01:31:34;;;;;;;3.55;2.13;;;10.60;99.90;;;;;;5037386;28;20156;-84
2023/12/28 01:33:59;;;;;;;3.90;2.20;;;10.50;99.90;;;;;;5035227;28;20184;-84
2023/12/28 01:36:25;;;;;;;2.92;1.80;;;10.60;99.90;;;;;;5035223;28;20026;-85
2023/12/28 01:38:51;;;;;;;4.65;2.03;;;10.50;99.90;;;;;;5035322;28;20457;-85
2023/12/28 01:41:17;;;;;;;4.78;2.10;;;10.50;99.90;;;;;;5052063;28;20120;-84
2023/12/28 01:43:46;;;;;;;4.25;2.38;;;10.50;99.90;;;;;;5035045;28;20037;-85
2023/12/28 01:46:21;;;;;;;3.55;2.40;;;10.50;99.90;;;;;;5051221;28;20530;-84
2023/12/28 01:48:49;;;;;;;3.92;2.40;;;10.50;99.90;;;;;;5051329;28;20033;-84
2023/12/28 01:51:15;;;;;;;4.03;2.25;;;10.50;99.90;;;;;;5035969;28;20026;-85
2023/12/28 01:53:43;;;;;;;3.58;2.30;;;10.40;99.90;;;;;;5051903;28;20385;-85
2023/12/28 01:56:09;;;;;;;2.88;1.90;;;10.50;99.90;;;;;;5051848;28;20556;-83
2023/12/28 01:58:37;;;;;;;3.40;2.10;;;10.50;99.90;;;;;;5051637;28;20129;-84
2023/12/28 02:01:06;;;;;;;4.20;2.28;;;10.50;99.90;;;;;;5035913;28;20473;-84
2023/12/28 02:03:34;;;;;;;4.90;2.15;;;10.50;99.90;;;;;;5034594;28;20034;-86
2023/12/28 02:06:01;;;;;;;5.03;2.20;;;10.50;99.90;;;;;;5034690;28;20136;-84
2023/12/28 02:08:26;;;;;;;2.65;2.10;;;10.40;99.90;;;;;;5034671;28;20354;-84
2023/12/28 02:10:52;;;;;;;3.80;2.00;;;10.40;99.90;;;;;;5051322;28;20091;-85
2023/12/28 02:13:18;;;;;;;3.47;2.22;;;10.50;99.90;;;;;;5050935;28;20057;-84
2023/12/28 02:15:53;;;;;;;4.85;2.80;;;10.40;99.90;;;;;;5034282;28;20087;-85
2023/12/28 02:18:23;;;;;;;3.45;2.05;;;10.40;99.90;;;;;;5051492;28;20028;-84
2023/12/28 02:20:50;;;;;;;3.70;2.15;;;10.40;99.90;;;;;;5035508;28;20091;-84
2023/12/28 02:23:15;;;;;;;4.13;2.10;;;10.40;99.90;;;;;;5035085;28;20499;-84
2023/12/28 02:25:41;;;;;;;4.00;2.40;;;10.40;99.90;;;;;;5051337;28;20120;-84
2023/12/28 02:28:08;;;;;;;3.97;1.80;;;10.40;99.90;;;;;;5050942;28;20029;-84
2023/12/28 02:30:33;;;;;;;5.22;2.33;;;10.40;99.90;;;;;;5051118;28;20029;-85
2023/12/28 02:33:08;;;;;;;6.25;2.15;;;10.40;99.90;;;;;;5034194;28;20041;-84
2023/12/28 02:35:39;;;;;;;3.78;2.10;;;10.40;99.90;;;;;;5050747;28;20088;-85
2023/12/28 02:38:10;;;;;;;5.68;2.47;;;10.40;99.90;;;;;;5017806;28;20022;-84
2023/12/28 02:40:43;;;;;;;3.80;2.10;;;10.40;99.90;;;;;;5035492;28;20096;-84
2023/12/28 02:43:10;;;;;;;5.43;2.22;;;10.40;99.90;;;;;;5035801;28;20035;-85
2023/12/28 02:45:36;;;;;;;3.40;2.05;;;10.40;99.90;;;;;;5035999;28;20148;-85
2023/12/28 02:48:03;;;;;;;4.05;1.90;;;10.40;99.90;;;;;;5018041;28;20416;-84
2023/12/28 02:50:31;;;;;;;3.88;2.40;;;10.40;99.90;;;;;;5051394;28;20128;-85
2023/12/28 02:52:57;;;;;;;2.50;1.98;;;10.40;99.90;;;;;;5056059;28;20021;-84
2023/12/28 02:55:23;;;;;;;4.78;2.22;;;10.40;99.90;;;;;;5051832;28;20033;-83
2023/12/28 02:57:50;;;;;;;4.10;2.30;;;10.40;99.90;;;;;;5056294;28;20147;-84
2023/12/28 03:00:16;;;;;;;4.82;2.17;;;10.40;99.90;;;;;;5046964;28;20029;-84
2023/12/28 03:02:42;;;;;;;3.30;1.65;;;10.40;99.90;;;;;;5065191;28;20084;-84
2023/12/28 03:05:08;;;;;;;5.80;2.30;;;10.40;99.90;;;;;;5037167;28;20044;-85
2023/12/28 03:07:34;;;;;;;5.57;2.10;;;10.40;99.90;;;;;;5034727;28;20064;-83
2023/12/28 03:10:00;;;;;;;3.28;2.08;;;10.40;99.90;;;;;;5027969;28;20029;-84
2023/12/28 03:12:28;;;;;;;4.25;2.00;;;10.40;99.90;;;;;;5033731;28;20034;-83
2023/12/28 03:14:54;;;;;;;3.60;2.08;;;10.30;99.90;;;;;;5026525;28;20059;-83
2023/12/28 03:17:19;;;;;;;5.13;2.13;;;10.30;99.90;;;;;;5016442;28;20037;-84
2023/12/28 03:19:45;;;;;;;2.40;1.50;;;10.30;99.90;;;;;;5058558;28;20059;-83
2023/12/28 03:22:11;;;;;;;2.90;2.08;;;10.30;99.90;;;;;;5038143;28;20037;-84
2023/12/28 03:24:38;;;;;;;4.50;1.98;;;10.30;99.90;;;;;;5053059;28;20029;-84
2023/12/28 03:27:04;;;;;;;4.90;1.85;;;10.30;99.90;;;;;;5053868;28;20037;-85
2023/12/28 03:29:30;;;;;;;3.13;1.90;;;10.30;99.90;;;;;;5016203;28;20037;-84
2023/12/28 03:31:56;;;;;;;3.58;1.60;;;10.30;99.90;;;;;;5033025;28;20037;-84
2023/12/28 03:34:22;;;;;;;3.90;1.70;;;10.30;99.90;;;;;;5034091;28;20065;-84
2023/12/28 03:36:49;;;;;;;3.15;1.90;;;10.30;99.90;;;;;;5052859;28;20384;-84
2023/12/28 03:39:14;;;;;;;3.25;1.60;;;10.30;99.90;;;;;;5048675;28;20036;-84
2023/12/28 03:41:40;;;;;;;6.97;2.28;;;10.30;99.90;;;;;;5020284;28;20025;-84
2023/12/28 03:44:06;;;;;;;6.30;1.88;;;10.30;99.90;;;;;;5019424;28;20033;-85
2023/12/28 03:46:31;;;;;;;7.32;3.40;;;10.30;99.90;;;;;;5053849;28;20036;-85
2023/12/28 03:48:57;;;;;;;3.60;1.63;;;10.40;99.90;;;;;;5035090;28;20060;-84
2023/12/28 03:51:23;;;;;;;5.88;2.00;;;10.40;99.90;;;;;;5034140;28;20095;-84
2023/12/28 03:53:49;;;;;;;4.40;1.92;;;10.40;99.90;;;;;;5065599;28;20531;-83
2023/12/28 03:56:25;;;;;;;5.35;2.10;;;10.40;99.90;;;;;;5051234;28;20099;-84
2023/12/28 03:58:51;;;;;;;4.97;2.17;;;10.50;99.90;;;;;;5032346;28;20036;-84
2023/12/28 04:01:22;;;;;;;3.13;1.90;;;10.50;99.90;;;;;;5032602;28;20064;-84
2023/12/28 04:03:48;;;;;;;5.37;1.90;;;10.50;99.90;;;;;;5022900;28;20473;-84
2023/12/28 04:06:14;;;;;;;5.05;2.15;;;10.50;99.90;;;;;;5033736;28;20017;-84
2023/12/28 04:08:41;;;;;;;4.43;2.40;;;10.50;99.90;;;;;;5040898;28;20466;-84
2023/12/28 04:11:07;;;;;;;7.22;1.70;;;10.50;99.90;;;;;;5024533;28;20033;-84
2023/12/28 04:13:33;;;;;;;3.55;1.75;;;10.50;99.90;;;;;;5031099;28;20096;-84
2023/12/28 04:15:59;;;;;;;5.65;1.90;;;10.60;99.90;;;;;;5047358;28;20084;-84
2023/12/28 04:18:25;;;;;;;5.63;1.80;;;10.60;99.90;;;;;;5069534;28;20425;-82
2023/12/28 04:20:50;;;;;;;4.72;1.80;;;10.60;99.90;;;;;;5036470;28;20033;-84
2023/12/28 04:23:16;;;;;;;4.70;1.75;;;10.60;99.90;;;;;;5025209;28;20044;-84
2023/12/28 04:25:42;;;;;;;4.70;1.60;;;10.60;99.90;;;;;;5042443;28;20010;-85
2023/12/28 04:28:10;;;;;;;7.28;1.95;;;10.60;99.90;;;;;;5059802;28;20013;-84
2023/12/28 04:30:36;;;;;;;7.57;2.25;;;10.60;99.90;;;;;;5059223;28;20017;-83
2023/12/28 04:33:05;;;;;;;6.28;2.05;;;10.60;99.90;;;;;;5029278;28;20041;-85
2023/12/28 04:35:31;;;;;;;5.63;2.00;;;10.60;99.90;;;;;;5036027;28;20163;-85
2023/12/28 04:37:56;;;;;;;6.85;2.17;;;10.60;99.90;;;;;;5045180;28;20034;-83
2023/12/28 04:40:22;;;;;;;7.10;2.15;;;10.70;99.90;;;;;;4999285;28;20057;-83
2023/12/28 04:42:48;;;;;;;7.30;2.92;;;10.70;99.90;;;;;;5004098;28;20030;-84
2023/12/28 04:45:13;;;;;;;6.18;1.70;;;10.60;99.90;;;;;;5032012;28;20576;-84
2023/12/28 04:47:39;;;;;;;8.90;2.08;;;10.60;99.90;;;;;;5030810;28;20054;-84
2023/12/28 04:50:06;;;;;;;6.63;2.30;;;10.60;99.90;;;;;;5018959;28;20469;-84
2023/12/28 04:52:35;;;;;;;7.32;1.88;;;10.60;99.90;;;;;;5034781;28;20453;-84
2023/12/28 04:55:00;;;;;;;4.22;1.70;;;10.60;99.90;;;;;;5024838;28;20124;-84
2023/12/28 04:57:27;;;;;;;8.73;2.17;;;10.60;99.90;;;;;;5015645;28;20053;-84
2023/12/28 04:59:54;;;;;;;7.68;2.03;;;10.60;99.90;;;;;;5019051;28;20089;-83
2023/12/28 05:02:19;;;;;;;5.85;1.63;;;10.60;99.90;;;;;;5016898;28;20025;-84
2023/12/28 05:04:45;;;;;;;6.07;1.90;;;10.60;99.90;;;;;;5039672;28;20037;-83
2023/12/28 05:07:11;;;;;;;5.68;2.15;;;10.60;99.90;;;;;;5015301;28;20033;-83
2023/12/28 05:09:36;;;;;;;6.38;1.95;;;10.60;99.90;;;;;;5033197;28;20030;-83
2023/12/28 05:12:03;;;;;;;6.97;1.98;;;10.60;99.90;;;;;;5035588;28;20035;-85
2023/12/28 05:14:28;;;;;;;4.63;1.90;;;10.70;99.90;;;;;;5017917;28;20175;-85
2023/12/28 05:16:54;;;;;;;5.55;1.95;;;10.70;99.90;;;;;;5023612;28;20116;-84
2023/12/28 05:19:20;;;;;;;6.40;2.00;;;10.70;99.90;;;;;;5032464;28;20037;-85
2023/12/28 05:21:46;;;;;;;7.63;2.38;;;10.70;99.90;;;;;;5035055;28;20052;-85
2023/12/28 05:24:15;;;;;;;7.18;2.00;;;10.80;99.90;;;;;;5038549;28;20071;-85
2023/12/28 05:26:41;;;;;;;9.02;2.92;;;10.80;99.90;;;;;;5038884;28;20035;-84
2023/12/28 05:29:06;;;;;;;8.85;2.30;;;10.80;99.90;;;;;;5008101;28;20029;-83
2023/12/28 05:31:35;;;;;;;9.10;3.20;;;10.80;99.90;;;;;;4986053;28;20118;-84
2023/12/28 05:34:00;;;;;;;9.23;2.42;;;10.80;99.90;;;;;;5017120;28;20044;-85
2023/12/28 05:36:26;;;;;;;8.15;1.98;;;10.80;99.90;;;;;;5010198;28;20037;-84
2023/12/28 05:38:52;;;;;;;9.70;2.90;;;10.80;99.90;;;;;;4995934;28;20530;-85
2023/12/28 05:41:17;;;;;;;8.50;2.08;;;10.80;99.90;;;;;;5006082;28;20393;-86
2023/12/28 05:43:43;;;;;;;11.25;2.60;;;10.90;99.90;;;;;;5012341;28;20033;-86
2023/12/28 05:46:09;;;;;;;8.00;2.08;;;10.90;99.90;;;;;;5051586;28;20466;-86
2023/12/28 05:48:35;;;;;;;11.35;2.50;;;10.90;99.90;;;;;;5042322;28;20302;-84
2023/12/28 05:51:00;;;;;;;9.82;2.38;;;10.90;99.90;;;;;;5040252;28;20026;-85
2023/12/28 05:53:27;;;;;;;6.75;2.20;;;10.90;99.90;;;;;;5044623;28;20119;-84
2023/12/28 05:55:53;;;;;;;7.18;2.15;;;11.00;99.90;;;;;;5049466;28;20036;-85
2023/12/28 05:58:19;;;;;;;9.77;2.28;;;11.00;99.90;;;;;;5055857;28;20024;-83
2023/12/28 06:00:46;;;;;;;9.50;2.05;;;11.00;99.90;;;;;;5056539;28;20013;-86
2023/12/28 06:03:12;;;;;;;10.82;2.10;;;11.00;99.90;;;;;;5042003;28;20032;-85
2023/12/28 06:05:37;;;;;;;7.22;2.05;;;11.00;99.90;;;;;;5069409;28;20029;-86
2023/12/28 06:08:04;;;;;;;12.20;2.40;;;11.00;99.90;;;;;;5029108;28;20032;-85
2023/12/28 06:10:30;;;;;;;10.48;2.83;;;11.00;99.90;;;;;;5022807;28;20033;-85
2023/12/28 06:12:55;;;;;;;6.57;2.15;;;11.00;99.90;;;;;;5009571;28;20082;-86
2023/12/28 06:15:21;;;;;;;9.75;2.40;;;11.10;99.90;;;;;;5038366;28;20057;-86
2023/12/28 06:17:46;;;;;;;9.48;2.47;;;11.00;99.90;;;;;;5020518;28;20116;-86
2023/12/28 06:20:12;;;;;;;9.45;2.10;;;11.10;99.90;;;;;;5037924;28;20053;-87
2023/12/28 06:22:38;;;;;;;8.73;2.15;;;11.00;99.90;;;;;;5021219;28;20045;-86
2023/12/28 06:25:04;;;;;;;7.20;2.47;;;11.10;99.90;;;;;;5045306;28;20037;-84
2023/12/28 06:27:30;;;;;;;9.98;2.42;;;11.10;99.90;;;;;;5047134;28;20048;-84
2023/12/28 06:29:56;;;;;;;14.10;3.55;;;11.10;99.90;;;;;;5008449;28;20033;-85
2023/12/28 06:32:22;;;;;;;7.18;2.10;;;11.10;99.90;;;;;;5055079;28;20033;-84
2023/12/28 06:34:48;;;;;;;11.05;2.40;;;11.10;99.90;;;;;;5020443;28;20021;-85
2023/12/28 06:37:14;;;;;;;6.97;2.75;;;11.10;99.90;;;;;;5054789;28;20025;-86
2023/12/28 06:39:40;;;;;;;7.03;1.88;;;11.10;99.90;;;;;;5020305;28;20043;-85
2023/12/28 06:42:06;;;;;;;6.03;1.83;;;11.20;99.90;;;;;;5055608;28;20029;-84
2023/12/28 06:44:35;;;;;;;6.40;2.20;;;11.20;99.90;;;;;;5028855;28;20436;-86
2023/12/28 06:47:00;;;;;;;6.90;2.38;;;11.20;99.90;;;;;;5036910;28;20056;-85
2023/12/28 06:49:26;;;;;;;12.85;3.08;;;11.10;99.90;;;;;;5019847;28;20056;-85
2023/12/28 06:51:52;;;;;;;8.63;2.47;;;11.20;99.90;;;;;;5020708;28;20064;-84
2023/12/28 06:54:17;;;;;;;6.85;2.50;;;11.20;99.90;;;;;;5053369;28;20124;-85
2023/12/28 06:56:43;;;;;;;8.90;2.45;;;11.20;99.90;;;;;;5052605;28;20075;-85
2023/12/28 06:59:12;;;;;;;8.43;2.67;;;11.20;99.90;;;;;;5015250;28;20032;-85
2023/12/28 07:01:41;;;;;;;10.50;2.40;;;11.20;99.90;;;;;;5016803;28;20084;-85
2023/12/28 07:04:07;;;;;;;12.32;3.10;;;11.20;99.90;;;;;;5032769;28;20035;-84
2023/12/28 07:06:33;;;;;;;9.13;2.72;;;11.20;99.90;;;;;;5036443;28;20102;-84
2023/12/28 07:08:59;;;;;;;11.68;2.92;;;11.20;99.90;;;;;;5015381;28;20061;-84
2023/12/28 07:11:26;;;;;;;9.57;2.50;;;11.20;99.90;;;;;;4988510;28;20036;-85
2023/12/28 07:13:52;;;;;;;11.25;2.90;;;11.20;99.90;;;;;;5049583;28;20477;-84
2023/12/28 07:16:17;;;;;;;11.65;2.80;;;11.20;99.90;;;;;;5033325;28;20036;-84
2023/12/28 07:18:43;;;;;;;10.88;2.50;;;11.20;99.90;;;;;;5033241;28;20021;-85
2023/12/28 07:21:12;;;;;;;13.60;2.30;;;11.20;99.90;;;;;;5048945;28;20025;-85
2023/12/28 07:23:38;;;;;;;10.18;2.55;;;11.30;99.90;;;;;;5021054;28;20487;-86
2023/12/28 07:26:04;;;;;;;9.30;2.45;;;11.30;99.90;;;;;;5030090;28;20137;-86
2023/12/28 07:28:30;;;;;;;9.15;2.58;;;11.30;99.90;;;;;;5024230;28;20024;-85
2023/12/28 07:30:58;;;;;;;12.63;3.05;;;11.20;99.90;;;;;;5085559;28;20009;-86
2023/12/28 07:33:24;;;;;;;9.82;2.63;;;11.20;99.90;;;;;;5061258;28;20033;-85
2023/12/28 07:35:50;;;;;;;13.30;2.50;;;11.20;99.90;;;;;;5060829;28;20036;-85
2023/12/28 07:38:15;;;;;;;14.50;2.90;;;11.20;99.90;;;;;;5033763;28;20032;-84
2023/12/28 07:40:41;;;;;;;10.15;2.90;;;11.20;99.90;;;;;;5032973;28;20107;-87
2023/12/28 07:43:07;;;;;;;8.55;2.95;;;11.20;99.90;;;;;;4983456;28;20543;-82
2023/12/28 07:45:38;;;;;;;8.73;2.65;;;11.20;99.90;;;;;;5026580;28;20022;-82
2023/12/28 07:48:04;;;;;;;8.35;2.47;;;11.20;99.90;;;;;;5050757;28;20033;-85
2023/12/28 07:50:30;;;;;;;11.32;2.47;;;11.30;99.90;;;;;;5019660;28;20094;-85
2023/12/28 07:52:55;;;;;;;9.60;2.28;;;11.20;99.90;;;;;;5032804;28;20068;-84
2023/12/28 07:55:21;;;;;;;12.57;2.90;;;11.20;99.90;;;;;;5016769;28;20466;-85
2023/12/28 07:57:46;;;;;;;13.30;3.13;;;11.20;99.90;;;;;;4993147;28;20147;-85
2023/12/28 08:00:12;;;;;;;13.15;2.53;;;11.20;99.90;;;;;;5036755;28;20048;-88
2023/12/28 08:02:38;;;;;;;18.10;3.20;;;11.20;99.90;;;;;;5038047;28;20357;-84
2023/12/28 08:05:05;;;;;;;11.80;2.97;;;11.20;99.90;;;;;;5007026;28;20160;-86
2023/12/28 08:07:30;;;;;;;12.55;2.70;;;11.20;99.90;;;;;;5061928;28;20033;-84
2023/12/28 08:09:56;;;;;;;11.38;2.83;;;11.20;99.90;;;;;;5023656;28;20090;-85
2023/12/28 08:12:24;;;;;;;9.85;2.30;;;11.20;99.90;;;;;;5049304;28;20040;-86
2023/12/28 08:14:50;;;;;;;14.68;2.72;;;11.20;99.90;;;;;;5008675;28;20507;-84
2023/12/28 08:17:15;;;;;;;11.88;2.50;;;11.20;99.90;;;;;;5005289;28;20061;-89
2023/12/28 08:19:41;;;;;;;11.23;2.42;;;11.20;99.90;;;;;;5025945;28;20131;-84
2023/12/28 08:22:07;;;;;;;9.30;2.53;;;11.20;99.90;;;;;;5035086;28;20040;-85
2023/12/28 08:24:36;;;;;;;11.18;2.92;;;11.30;99.90;;;;;;5006996;28;20033;-85
2023/12/28 08:27:02;;;;;;;13.98;3.10;;;11.20;99.90;;;;;;5021134;28;20029;-85
2023/12/28 08:29:28;;;;;;;10.38;2.50;;;11.30;99.90;;;;;;5010193;28;20483;-86
2023/12/28 08:31:55;;;;;;;14.15;3.13;;;11.30;99.90;;;;;;5009280;28;20053;-85
2023/12/28 08:34:21;;;;;;;8.68;2.35;;;11.30;99.90;;;;;;5015124;28;20401;-86
2023/12/28 08:36:46;;;;;;;12.55;2.72;;;11.40;99.90;;;;;;5028593;28;20032;-86
2023/12/28 08:39:12;;;;;;;9.45;2.50;;;11.40;99.90;;;;;;5043111;28;20033;-86
2023/12/28 08:41:41;;;;;;;14.75;3.58;;;11.40;99.90;;;;;;5036603;28;20485;-84
2023/12/28 08:44:06;;;;;;;9.93;2.65;;;11.40;99.90;;;;;;5044820;28;20036;-85
2023/12/28 08:46:34;;;;;;;11.23;2.60;;;11.40;99.90;;;;;;5048212;28;20434;-86
2023/12/28 08:49:00;;;;;;;14.10;3.20;;;11.50;99.90;;;;;;5024848;28;20033;-88
2023/12/28 08:51:26;;;;;;;11.27;2.45;;;11.40;99.90;;;;;;5021863;28;20029;-86
2023/12/28 08:53:51;;;;;;;12.77;3.35;;;11.40;99.90;;;;;;5009326;28;20029;-85
2023/12/28 08:56:19;;;;;;;16.83;3.08;;;11.50;99.90;;;;;;5036229;28;20041;-85
2023/12/28 08:58:49;;;;;;;12.73;2.47;;;11.50;99.90;;;;;;5025749;28;20112;-85
2023/12/28 09:01:25;;;;;;;6.25;2.30;;;11.50;99.90;;;;;;5033690;28;20021;-84
2023/12/28 09:03:51;;;;;;;12.25;2.67;;;11.50;99.90;;;;;;5078935;28;20008;-83
2023/12/28 09:06:17;;;;;;;12.52;3.55;;;11.50;99.90;;;;;;5054470;28;20044;-87
2023/12/28 09:08:44;;;;;;;8.50;2.47;;;11.50;99.90;;;;;;5083595;28;20065;-86
2023/12/28 09:11:13;;;;;;;11.60;2.53;;;11.50;99.90;;;;;;5074065;28;20036;-84
2023/12/28 09:13:39;;;;;;;10.75;2.47;;;11.50;99.90;;;;;;5028378;28;20094;-85
2023/12/28 09:16:07;;;;;;;11.35;2.75;;;11.50;99.90;;;;;;5044947;28;20052;-85
2023/12/28 09:18:33;;;;;;;16.27;3.05;;;11.50;99.90;;;;;;5047050;28;20396;-86
2023/12/28 09:20:59;;;;;;;12.40;2.92;;;11.40;99.90;;;;;;5039876;28;20037;-84
2023/12/28 09:23:25;;;;;;;10.25;2.80;;;11.50;99.90;;;;;;5010765;28;20030;-86
2023/12/28 09:25:50;;;;;;;9.63;2.60;;;11.50;99.90;;;;;;5043814;28;20445;-86
2023/12/28 09:28:16;;;;;;;9.88;2.55;;;11.50;99.90;;;;;;5008506;28;20035;-86
2023/12/28 09:30:41;;;;;;;11.77;2.55;;;11.40;99.90;;;;;;5025002;28;20470;-86
2023/12/28 09:33:07;;;;;;;12.32;3.00;;;11.50;99.90;;;;;;5040985;28;20091;-86
2023/12/28 09:35:36;;;;;;;13.68;3.38;;;11.50;99.90;;;;;;5041864;28;20061;-86
2023/12/28 09:38:02;;;;;;;8.95;2.05;;;11.50;99.90;;;;;;5039277;28;20492;-86
2023/12/28 09:40:27;;;;;;;13.70;2.72;;;11.50;99.90;;;;;;5023169;28;20029;-84
2023/12/28 09:43:20;;;;;;;11.23;2.40;;;11.50;99.90;;;;;;5044264;28;20129;-85
2023/12/28 09:45:47;;;;;;;11.48;2.85;;;11.60;99.90;;;;;;5026529;28;20025;-85
2023/12/28 09:48:19;;;;;;;13.43;2.80;;;11.60;99.90;;;;;;5020132;28;20087;-86
2023/12/28 09:50:54;;;;;;;13.73;3.75;;;11.60;99.90;;;;;;5023409;28;20116;-86
2023/12/28 09:53:24;;;;;;;14.18;3.08;;;11.60;99.90;;;;;;5041529;28;20025;-86
2023/12/28 09:55:51;;;;;;;12.45;2.88;;;11.60;99.90;;;;;;5012689;28;20070;-86
2023/12/28 09:58:19;;;;;;;12.48;2.25;;;11.60;99.90;;;;;;5024326;28;20466;-86
2023/12/28 10:00:46;;;;;;;9.05;2.40;;;11.60;99.90;;;;;;5013829;28;20030;-86
2023/12/28 10:03:16;;;;;;;10.65;3.03;;;11.60;99.90;;;;;;5030947;28;20029;-84
2023/12/28 10:05:43;;;;;;;20.42;3.58;;;11.70;99.90;;;;;;5023500;28;20024;-85
2023/12/28 10:08:10;;;;;;;12.63;3.13;;;11.70;99.90;;;;;;5007756;28;20038;-87
2023/12/28 10:10:36;;;;;;;18.33;3.13;;;11.70;99.90;;;;;;5027712;28;20495;-85
2023/12/28 10:13:02;;;;;;;13.40;2.97;;;11.80;99.90;;;;;;5021618;28;20053;-85
2023/12/28 10:15:30;;;;;;;13.00;2.75;;;11.80;99.90;;;;;;5010517;28;20045;-85
2023/12/28 10:17:58;;;;;;;10.48;3.03;;;11.70;99.90;;;;;;5054938;28;20079;-85
2023/12/28 10:20:27;;;;;;;8.65;2.47;;;11.80;99.90;;;;;;5040900;28;20068;-86
2023/12/28 10:22:52;;;;;;;10.25;2.90;;;11.80;99.90;;;;;;5058800;28;20037;-85
2023/12/28 10:25:18;;;;;;;8.27;2.10;;;11.80;99.90;;;;;;5010589;28;20167;-85
2023/12/28 10:27:44;;;;;;;13.15;2.80;;;11.80;99.90;;;;;;5021539;28;20029;-86
2023/12/28 10:30:10;;;;;;;8.55;2.55;;;11.80;99.90;;;;;;5053071;28;20040;-85
2023/12/28 10:32:42;;;;;;;10.65;3.40;;;11.80;99.90;;;;;;5010740;28;20037;-85
2023/12/28 10:35:08;;;;;;;12.65;2.95;;;11.80;99.90;;;;;;5063338;28;20029;-84
2023/12/28 10:37:37;;;;;;;9.82;2.95;;;11.80;99.90;;;;;;5015820;28;20104;-83
2023/12/28 10:40:07;;;;;;;12.25;3.20;;;11.90;99.90;;;;;;5064927;28;20025;-84
2023/12/28 10:43:01;;;;;;;10.25;2.58;;;11.80;99.90;;;;;;5076070;28;20040;-86
2023/12/28 10:45:30;;;;;;;9.43;2.05;;;11.80;99.90;;;;;;5067245;28;20022;-87
2023/12/28 10:48:07;;;;;;;12.27;2.65;;;11.80;99.90;;;;;;5039683;28;20030;-84
2023/12/28 10:50:53;;;;;;;14.25;2.90;;;11.80;99.90;;;;;;5069786;28;20029;-83
2023/12/28 10:53:29;;;;;;;9.23;2.53;;;11.90;99.90;;;;;;5039265;28;20120;-85
2023/12/28 10:56:00;;;;;;;10.18;2.85;;;11.80;99.90;;;;;;5025672;28;20052;-85
2023/12/28 10:58:50;;;;;;;11.38;2.33;;;11.80;99.90;;;;;;5035878;28;20495;-85
2023/12/28 11:01:27;;;;;;;9.13;2.38;;;11.80;99.90;;;;;;5024945;28;20064;-85
2023/12/28 11:04:13;;;;;;;12.68;2.65;;;11.80;99.90;;;;;;5022070;28;20017;-86
2023/12/28 11:06:42;;;;;;;12.18;2.75;;;11.90;99.90;;;;;;5035555;28;20109;-87
2023/12/28 11:09:10;;;;;;;9.30;2.55;;;11.80;99.90;;;;;;5020748;28;20557;-87
2023/12/28 11:11:36;;;;;;;12.95;3.03;;;11.90;99.90;;;;;;5044540;28;20034;-88
2023/12/28 11:14:03;;;;;;;16.05;3.33;;;11.90;99.90;;;;;;5024988;28;20049;-86
2023/12/28 11:16:29;;;;;;;10.38;3.05;;;11.80;99.90;;;;;;5013390;28;20136;-86
2023/12/28 11:18:59;;;;;;;11.85;3.55;;;11.90;99.90;;;;;;5042505;28;20032;-86
2023/12/28 11:21:25;;;;;;;11.45;2.67;;;11.90;99.90;;;;;;5031943;28;20029;-86
2023/12/28 11:23:51;;;;;;;12.73;3.00;;;11.90;99.90;;;;;;5039332;28;20504;-86
2023/12/28 11:26:21;;;;;;;13.10;3.30;;;11.90;99.90;;;;;;5011030;28;20048;-85
2023/12/28 11:28:47;;;;;;;10.40;2.55;;;11.90;99.90;;;;;;5020901;28;20036;-85
2023/12/28 11:31:17;;;;;;;12.25;3.13;;;12.00;99.90;;;;;;5020898;28;20021;-85
2023/12/28 11:33:47;;;;;;;10.93;2.65;;;12.00;99.90;;;;;;5029476;28;20052;-86
2023/12/28 11:36:32;;;;;;;16.33;3.38;;;12.00;99.90;;;;;;5011205;28;20043;-87
2023/12/28 11:39:05;;;;;;;13.05;2.97;;;12.00;99.90;;;;;;5042912;28;20013;-88
2023/12/28 11:41:32;;;;;;;14.32;3.13;;;12.00;99.90;;;;;;5032431;28;20122;-89
2023/12/28 11:44:05;;;;;;;12.15;3.05;;;12.00;99.90;;;;;;5034043;28;20036;-86
2023/12/28 11:46:31;;;;;;;14.63;3.45;;;12.00;99.90;;;;;;5051116;28;20134;-85
2023/12/28 11:49:07;;;;;;;11.55;3.42;;;12.00;99.90;;;;;;5041845;28;20025;-86
2023/12/28 11:51:39;;;;;;;11.13;2.40;;;12.00;99.90;;;;;;5040584;28;20497;-85
2023/12/28 11:54:05;;;;;;;11.73;2.42;;;12.00;99.90;;;;;;5042292;28;20078;-85
2023/12/28 11:56:31;;;;;;;10.68;2.95;;;12.00;99.90;;;;;;5034156;28;20444;-86
2023/12/28 11:58:58;;;;;;;14.98;3.28;;;12.00;99.90;;;;;;5064200;28;20055;-85
2023/12/28 12:01:24;;;;;;;11.30;2.83;;;12.00;99.90;;;;;;5046862;28;20030;-86
2023/12/28 12:03:53;;;;;;;10.23;3.10;;;12.00;99.90;;;;;;5026128;28;20555;-87
2023/12/28 12:06:19;;;;;;;13.82;3.40;;;12.00;99.90;;;;;;5041874;28;20041;-85
2023/12/28 12:08:46;;;;;;;10.60;2.78;;;12.00;99.90;;;;;;5013385;28;20466;-86
2023/12/28 12:11:12;;;;;;;12.85;2.80;;;12.00;99.90;;;;;;5058793;28;20025;-87
2023/12/28 12:13:38;;;;;;;13.30;3.08;;;12.00;99.90;;;;;;5046549;28;20040;-85
2023/12/28 12:16:05;;;;;;;9.68;2.95;;;12.00;99.90;;;;;;5047626;28;20097;-86
2023/12/28 12:18:33;;;;;;;15.90;3.08;;;12.00;99.90;;;;;;5078845;28;20029;-84
2023/12/28 12:20:58;;;;;;;11.65;3.38;;;12.00;99.90;;;;;;5030667;28;20108;-86
2023/12/28 12:23:24;;;;;;;13.15;3.00;;;12.00;99.90;;;;;;5056055;28;20136;-85
2023/12/28 12:25:51;;;;;;;13.00;3.15;;;12.00;99.90;;;;;;5045750;28;20116;-85
2023/12/28 12:28:17;;;;;;;9.05;2.75;;;12.00;99.90;;;;;;5022197;28;20076;-85
2023/12/28 12:30:52;;;;;;;11.57;2.67;;;12.00;99.90;;;;;;5025950;28;20417;-86
2023/12/28 12:33:17;;;;;;;11.50;2.88;;;12.00;99.90;;;;;;5051210;28;20060;-86
2023/12/28 12:35:43;;;;;;;14.77;3.30;;;12.00;99.90;;;;;;5016465;28;20056;-86
2023/12/28 12:38:09;;;;;;;8.30;2.63;;;12.00;99.90;;;;;;5031511;28;20028;-86
2023/12/28 12:40:35;;;;;;;17.85;3.00;;;12.00;99.90;;;;;;5048239;28;20388;-87
2023/12/28 12:43:01;;;;;;;14.07;2.80;;;12.00;99.90;;;;;;5022880;28;20125;-83